Portada
METAR-TAF:

METAR-TAF

Aeropuertos :

Illinois Valley Regional Airport (Walter A. Duncan Field)

Peru / LaSalle, Illinois, Estados Unidos

latitud: 41-21-07N, longitud: 089-09-11W, altitud: 199 m

Observación

El informe se hizo hace 17 minutos, a las 05:55 UTC
Viento 3 kt del este-sureste
Temperatura 21°C
Humedad 83%
Presión 1015 hPa
Visibilidad: 16.1 km
Cielo despejado

METAR: KVYS 130555Z AUTO 11003KT 10SM CLR 21/18 A2996 RMK AO2 T02050177 10256 20205 402780176

Hora: 01:12 (06:12 UTC)


TAF: falta

Observaciones y pronósticos meteorológicos de más de 4000 aeropuertos (mensajes METAR y TAF).

Los puntos amarillos y rojos representan las estaciones disponibles.

Ponga el ratón en el punto deseado para ver el nombre de la estación.

Haga clic para ver las observaciones y los pronósticos meteorológicos.

Para cambiar el mapa : haga clic en los botones verdes con una cruz de color negro para hacer un zoom, en el botón verde con un guión para alejar o en las flechas verdes para mapas adyacentes.


METAR-TAF: